createdAt,value
2023-05-15T00:03:33.541Z,2.00
2023-05-15T00:07:36.272Z,2.08
2023-05-15T00:11:38.290Z,1.83
2023-05-15T00:15:40.362Z,2.10
2023-05-15T00:19:42.529Z,2.10
2023-05-15T00:23:44.539Z,2.30
2023-05-15T00:27:46.643Z,1.98
2023-05-15T00:31:49.008Z,2.13
2023-05-15T00:35:51.174Z,1.80
2023-05-15T00:39:53.290Z,1.80
2023-05-15T00:43:55.802Z,1.80
2023-05-15T00:47:59.004Z,2.03
2023-05-15T00:52:03.581Z,2.00
2023-05-15T00:56:06.440Z,1.90
2023-05-15T01:00:10.510Z,2.25
2023-05-15T01:04:12.788Z,2.03
2023-05-15T01:08:22.512Z,1.90
2023-05-15T01:12:27.634Z,1.92
2023-05-15T01:16:29.691Z,2.33
2023-05-15T01:20:46.343Z,2.30
2023-05-15T01:25:29.510Z,2.43
2023-05-15T01:29:51.360Z,2.58
2023-05-15T01:33:59.121Z,2.42
2023-05-15T01:38:15.575Z,2.05
2023-05-15T01:42:19.402Z,2.53
2023-05-15T01:46:23.476Z,1.88
2023-05-15T01:50:27.792Z,2.10
2023-05-15T01:54:30.074Z,2.00
2023-05-15T01:58:32.364Z,2.42
2023-05-15T02:02:35.043Z,2.65
2023-05-15T02:06:37.995Z,2.30
2023-05-15T02:10:41.169Z,2.38
2023-05-15T02:14:43.947Z,2.60
2023-05-15T02:18:47.494Z,2.58
2023-05-15T02:22:49.563Z,2.22
2023-05-15T02:27:26.741Z,2.20
2023-05-15T02:31:38.116Z,2.10
2023-05-15T02:36:02.602Z,2.33
2023-05-15T02:40:08.365Z,2.10
2023-05-15T02:44:11.405Z,2.30
2023-05-15T02:48:14.720Z,2.20
2023-05-15T02:52:17.381Z,2.78
2023-05-15T02:56:19.481Z,2.60
2023-05-15T03:00:21.710Z,2.97
2023-05-15T03:04:23.856Z,2.60
2023-05-15T03:08:27.110Z,2.55
2023-05-15T03:12:29.126Z,3.08
2023-05-15T03:16:31.171Z,2.85
2023-05-15T03:20:33.233Z,2.78
2023-05-15T03:24:35.247Z,2.40
2023-05-15T03:28:37.798Z,2.53
2023-05-15T03:32:39.926Z,2.60
2023-05-15T03:36:41.972Z,2.67
2023-05-15T03:40:44.039Z,3.05
2023-05-15T03:44:46.027Z,2.97
2023-05-15T03:48:48.441Z,2.78
2023-05-15T03:52:50.590Z,2.42
2023-05-15T03:56:53.738Z,2.20
2023-05-15T04:00:55.833Z,2.30
2023-05-15T04:04:57.907Z,2.70
2023-05-15T04:08:59.994Z,2.60
2023-05-15T04:13:02.066Z,2.63
2023-05-15T04:17:04.328Z,2.55
2023-05-15T04:21:06.659Z,2.90
2023-05-15T04:25:09.522Z,2.67
2023-05-15T04:29:11.585Z,2.78
2023-05-15T04:33:13.721Z,2.58
2023-05-15T04:37:15.886Z,2.22
2023-05-15T04:41:18.566Z,2.10
2023-05-15T04:45:20.796Z,2.10
2023-05-15T04:49:22.824Z,1.90
2023-05-15T04:53:24.870Z,2.33
2023-05-15T04:57:27.121Z,1.90
2023-05-15T05:01:29.290Z,1.80
2023-05-15T05:05:31.498Z,2.00
2023-05-15T05:09:34.083Z,1.90
2023-05-15T05:13:36.114Z,1.60
2023-05-15T05:17:38.179Z,2.20
2023-05-15T05:21:40.210Z,2.25
2023-05-15T05:25:42.356Z,1.63
2023-05-15T05:29:44.601Z,1.80
2023-05-15T05:33:46.701Z,1.95
2023-05-15T05:37:48.733Z,1.65
2023-05-15T05:41:50.907Z,1.75
2023-05-15T05:45:53.036Z,2.70
2023-05-15T05:49:55.219Z,1.50
2023-05-15T05:53:57.349Z,1.60
2023-05-15T05:57:59.436Z,1.80
2023-05-15T06:02:01.571Z,1.80
2023-05-15T06:06:03.906Z,1.80
2023-05-15T06:10:09.408Z,1.42
2023-05-15T06:14:11.774Z,1.50
2023-05-15T06:18:14.075Z,1.70
2023-05-15T06:22:16.211Z,1.80
2023-05-15T06:26:18.325Z,1.90
2023-05-15T06:30:20.425Z,2.05
2023-05-15T06:34:22.417Z,1.80
2023-05-15T06:38:24.483Z,1.50
2023-05-15T06:42:27.004Z,1.55
2023-05-15T06:46:29.078Z,1.60
2023-05-15T06:50:31.160Z,1.88
2023-05-15T06:54:33.489Z,1.70
2023-05-15T06:58:35.567Z,1.50
2023-05-15T07:02:37.617Z,1.70
2023-05-15T07:06:39.643Z,1.83
2023-05-15T07:10:41.717Z,2.03
2023-05-15T07:14:43.774Z,2.55
2023-05-15T07:18:46.086Z,2.30
2023-05-15T07:22:55.813Z,2.47
2023-05-15T07:26:59.448Z,2.42
2023-05-15T07:31:02.959Z,2.40
2023-05-15T07:35:06.192Z,2.53
2023-05-15T07:39:08.246Z,2.60
2023-05-15T07:43:10.356Z,2.70
2023-05-15T07:47:12.524Z,3.08
2023-05-15T07:51:14.763Z,2.50
2023-05-15T07:55:16.786Z,3.03
2023-05-15T07:59:18.911Z,3.45
2023-05-15T08:03:21.125Z,3.05
2023-05-15T08:07:23.273Z,3.78
2023-05-15T08:11:25.274Z,3.83
2023-05-15T08:15:27.499Z,4.80
2023-05-15T08:19:29.617Z,5.00
2023-05-15T08:23:31.667Z,11.00
2023-05-15T08:27:33.720Z,7.20
2023-05-15T08:31:36.247Z,6.93
2023-05-15T08:35:38.374Z,7.10
2023-05-15T08:39:40.448Z,6.07
2023-05-15T08:43:44.058Z,7.40
2023-05-15T08:47:46.331Z,6.95
2023-05-15T08:51:48.753Z,6.47
2023-05-15T08:55:51.429Z,7.10
2023-05-15T08:59:54.480Z,5.95
2023-05-15T09:03:56.899Z,6.32
2023-05-15T09:08:03.373Z,6.68
2023-05-15T09:12:10.765Z,6.75
2023-05-15T09:16:13.048Z,7.45
2023-05-15T09:20:32.696Z,8.00
2023-05-15T09:24:37.903Z,8.20
2023-05-15T09:28:40.052Z,8.48
2023-05-15T09:32:42.203Z,9.02
2023-05-15T09:36:47.193Z,9.85
2023-05-15T09:40:49.319Z,9.63
2023-05-15T09:44:51.358Z,9.32
2023-05-15T09:48:56.283Z,8.73
2023-05-15T09:52:59.283Z,9.00
2023-05-15T09:57:11.785Z,11.07
2023-05-15T10:01:19.280Z,11.02
2023-05-15T10:05:28.652Z,11.45
2023-05-15T10:09:38.177Z,12.48
2023-05-15T10:13:40.604Z,12.52
2023-05-15T10:17:44.375Z,13.48
2023-05-15T10:21:47.508Z,10.57
2023-05-15T10:25:59.979Z,10.32
2023-05-15T10:30:04.139Z,10.55
2023-05-15T10:34:06.879Z,10.85
2023-05-15T10:38:10.574Z,10.38
2023-05-15T10:42:13.382Z,11.57
2023-05-15T10:46:16.690Z,10.45
2023-05-15T10:50:18.818Z,11.43
2023-05-15T10:54:22.261Z,11.32
2023-05-15T10:58:24.432Z,10.93
2023-05-15T11:02:29.471Z,10.88
2023-05-15T11:06:32.399Z,9.35
2023-05-15T11:10:34.312Z,11.57
2023-05-15T11:14:39.011Z,11.98
2023-05-15T11:18:41.208Z,11.75
2023-05-15T11:22:43.293Z,11.07
2023-05-15T11:26:45.363Z,12.32
2023-05-15T11:30:51.203Z,11.80
2023-05-15T11:35:00.180Z,11.98
2023-05-15T11:39:02.345Z,13.45
2023-05-15T11:43:06.593Z,13.55
2023-05-15T11:47:11.812Z,14.73
2023-05-15T11:51:25.896Z,12.98
2023-05-15T11:55:29.271Z,11.13
2023-05-15T11:59:34.051Z,11.85
2023-05-15T12:03:36.468Z,11.68
2023-05-15T12:07:40.908Z,12.27
2023-05-15T12:11:55.750Z,11.57
2023-05-15T12:15:58.420Z,4.57
2023-05-15T12:20:01.188Z,3.72
2023-05-15T12:24:08.254Z,3.78
2023-05-15T12:32:13.908Z,5.03
2023-05-15T12:36:20.847Z,3.90
2023-05-15T12:40:24.006Z,3.95
2023-05-15T12:44:27.215Z,3.38
2023-05-15T12:48:32.028Z,4.55
2023-05-15T12:52:34.143Z,6.28
2023-05-15T12:56:36.166Z,7.80
2023-05-15T13:00:40.776Z,8.05
2023-05-15T13:04:42.826Z,7.63
2023-05-15T13:08:45.876Z,6.07
2023-05-15T13:12:52.109Z,5.35
2023-05-15T13:16:54.162Z,4.10
2023-05-15T13:20:56.192Z,3.53
2023-05-15T13:24:58.467Z,4.22
2023-05-15T13:29:01.535Z,4.43
2023-05-15T13:33:03.860Z,4.28
2023-05-15T13:37:05.976Z,4.43
2023-05-15T13:41:09.082Z,19.95
2023-05-15T13:45:16.398Z,6.53
2023-05-15T13:49:18.747Z,4.90
2023-05-15T13:53:21.275Z,4.85
2023-05-15T13:57:23.368Z,5.07
2023-05-15T14:01:25.448Z,5.00
2023-05-15T14:05:27.512Z,4.93
2023-05-15T14:09:29.589Z,4.68
2023-05-15T14:13:34.313Z,4.85
2023-05-15T14:17:36.395Z,4.80
2023-05-15T14:21:39.351Z,5.30
2023-05-15T14:25:41.503Z,4.60
2023-05-15T14:29:44.848Z,4.60
2023-05-15T14:33:46.931Z,4.93
2023-05-15T14:37:49.528Z,5.05
2023-05-15T14:41:51.600Z,5.47
2023-05-15T14:45:53.660Z,5.65
2023-05-15T14:49:55.722Z,5.43
2023-05-15T14:53:58.124Z,5.78
2023-05-15T14:58:00.284Z,5.85
2023-05-15T15:02:02.402Z,5.97
2023-05-15T15:06:04.687Z,6.07
2023-05-15T15:10:07.055Z,6.18
2023-05-15T15:14:09.095Z,6.30
2023-05-15T15:18:11.232Z,6.90
2023-05-15T15:22:13.364Z,6.65
2023-05-15T15:26:15.726Z,6.93
2023-05-15T15:30:18.068Z,6.32
2023-05-15T15:34:20.413Z,7.05
2023-05-15T15:38:22.558Z,6.82
2023-05-15T15:42:25.032Z,7.13
2023-05-15T15:46:27.170Z,6.10
2023-05-15T15:50:29.501Z,6.97
2023-05-15T15:54:33.131Z,6.60
2023-05-15T15:58:35.305Z,5.88
2023-05-15T16:02:37.455Z,5.75
2023-05-15T16:06:39.857Z,6.00
2023-05-15T16:10:41.940Z,5.85
2023-05-15T16:14:44.304Z,75.32
2023-05-15T16:18:46.441Z,6.85
2023-05-15T16:22:48.640Z,5.78
2023-05-15T16:26:51.321Z,5.68
2023-05-15T16:30:53.661Z,6.22
2023-05-15T16:34:56.056Z,5.10
2023-05-15T16:38:59.942Z,5.07
2023-05-15T16:43:02.000Z,6.60
2023-05-15T16:47:04.357Z,5.63
2023-05-15T16:51:06.408Z,7.60
2023-05-15T16:55:08.524Z,6.97
2023-05-15T16:59:10.852Z,10.77
2023-05-15T17:03:13.309Z,6.70
2023-05-15T17:07:15.352Z,6.10
2023-05-15T17:11:17.448Z,6.03
2023-05-15T17:15:19.618Z,5.20
2023-05-15T17:19:21.691Z,4.63
2023-05-15T17:23:24.329Z,4.70
2023-05-15T17:27:26.410Z,4.80
2023-05-15T17:31:29.448Z,4.65
2023-05-15T17:35:33.024Z,4.18
2023-05-15T17:39:35.742Z,4.18
2023-05-15T17:43:37.783Z,4.63
2023-05-15T17:47:40.189Z,4.20
2023-05-15T17:51:42.213Z,4.10
2023-05-15T17:55:44.319Z,3.92
2023-05-15T17:59:46.429Z,4.18
2023-05-15T18:03:48.685Z,3.88
2023-05-15T18:07:50.718Z,3.85
2023-05-15T18:11:52.842Z,4.07
2023-05-15T18:15:54.933Z,4.68
2023-05-15T18:19:57.010Z,3.92
2023-05-15T18:23:59.037Z,3.70
2023-05-15T18:28:01.048Z,4.03
2023-05-15T18:32:03.298Z,4.40
2023-05-15T18:36:07.398Z,4.07
2023-05-15T18:40:10.462Z,4.32
2023-05-15T18:44:12.503Z,4.35
2023-05-15T18:48:14.792Z,3.90
2023-05-15T18:52:18.599Z,4.75
2023-05-15T18:56:21.813Z,5.53
2023-05-15T19:00:37.247Z,4.72
2023-05-15T19:04:40.617Z,4.77
2023-05-15T19:08:42.630Z,5.20
2023-05-15T19:12:45.268Z,4.63
2023-05-15T19:16:47.407Z,4.93
2023-05-15T19:20:50.451Z,5.18
2023-05-15T19:24:52.509Z,5.60
2023-05-15T19:28:54.937Z,5.20
2023-05-15T19:32:56.975Z,4.90
2023-05-15T19:36:59.022Z,5.13
2023-05-15T19:41:01.042Z,5.28
2023-05-15T19:45:03.178Z,6.05
2023-05-15T19:49:05.949Z,5.65
2023-05-15T19:53:08.264Z,5.30
2023-05-15T19:57:10.346Z,5.63
2023-05-15T20:01:12.368Z,5.55
2023-05-15T20:05:15.289Z,5.80
2023-05-15T20:09:17.296Z,5.93
2023-05-15T20:13:21.910Z,5.65
2023-05-15T20:17:24.156Z,5.72
2023-05-15T20:21:26.240Z,6.47
2023-05-15T20:25:29.454Z,6.63
2023-05-15T20:29:31.872Z,7.88
2023-05-15T20:33:33.934Z,9.93
2023-05-15T20:37:36.926Z,10.38
2023-05-15T20:41:38.937Z,11.30
2023-05-15T20:45:41.149Z,10.57
2023-05-15T20:49:43.747Z,11.00
2023-05-15T20:53:45.818Z,11.43
2023-05-15T20:57:48.987Z,11.73
2023-05-15T21:01:51.084Z,12.40
2023-05-15T21:05:54.833Z,14.48
2023-05-15T21:09:58.755Z,14.88
2023-05-15T21:14:01.293Z,15.05
2023-05-15T21:18:03.853Z,16.13
2023-05-15T21:22:06.498Z,16.15
2023-05-15T21:26:08.511Z,16.85
2023-05-15T21:30:11.485Z,16.80
2023-05-15T21:34:13.540Z,17.27
2023-05-15T21:38:15.829Z,17.90
2023-05-15T21:42:17.841Z,17.77
2023-05-15T21:46:20.129Z,17.75
2023-05-15T21:50:22.176Z,18.45
2023-05-15T21:54:24.310Z,17.85
2023-05-15T21:58:26.535Z,18.65
2023-05-15T22:02:28.588Z,18.00
2023-05-15T22:06:31.057Z,18.88
2023-05-15T22:10:33.076Z,18.75
2023-05-15T22:14:35.192Z,19.00
2023-05-15T22:18:37.735Z,19.75
2023-05-15T22:22:42.009Z,18.17
2023-05-15T22:26:44.043Z,19.05
2023-05-15T22:30:46.260Z,18.92
2023-05-15T22:34:48.296Z,19.17
2023-05-15T22:38:50.419Z,20.35
2023-05-15T22:42:52.457Z,20.20
2023-05-15T22:46:54.522Z,19.05
2023-05-15T22:50:57.783Z,19.77
2023-05-15T22:54:59.827Z,20.80
2023-05-15T22:59:01.849Z,21.45
2023-05-15T23:03:03.874Z,18.48
2023-05-15T23:07:06.212Z,20.52
2023-05-15T23:11:08.277Z,21.23
2023-05-15T23:15:10.668Z,21.90
2023-05-15T23:19:12.777Z,22.30
2023-05-15T23:23:15.144Z,21.25
2023-05-15T23:27:17.188Z,21.95
2023-05-15T23:31:20.042Z,22.73
2023-05-15T23:35:22.449Z,22.50
2023-05-15T23:39:24.559Z,23.38
2023-05-15T23:43:26.701Z,22.77
2023-05-15T23:47:29.129Z,23.13
2023-05-15T23:51:31.237Z,23.38
2023-05-15T23:55:33.252Z,22.83
2023-05-15T23:59:35.385Z,23.70
